createdAt,value
2022-12-12T00:13:41.937Z,4.03
2022-12-12T00:32:20.662Z,4.09
2022-12-12T00:50:59.280Z,4.02
2022-12-12T01:09:39.401Z,4.09
2022-12-12T01:28:17.716Z,4.09
2022-12-12T01:46:57.672Z,4.09
2022-12-12T02:05:38.038Z,4.09
2022-12-12T02:24:21.642Z,4.08
2022-12-12T02:42:59.515Z,4.08
2022-12-12T03:01:40.587Z,4.01
2022-12-12T03:20:19.024Z,4.08
2022-12-12T03:38:59.836Z,4.08
2022-12-12T03:57:40.678Z,4.01
2022-12-12T04:16:20.648Z,4.07
2022-12-12T04:34:59.823Z,4.06
2022-12-12T04:53:40.186Z,4.04
2022-12-12T05:12:20.447Z,4.07
2022-12-12T05:30:59.948Z,4.04
2022-12-12T05:49:39.227Z,4.07
2022-12-12T06:08:22.192Z,4.07
2022-12-12T06:26:57.191Z,4.01
2022-12-12T06:45:36.584Z,4.07
2022-12-12T07:04:17.331Z,4.07
2022-12-12T07:22:57.647Z,4.02
2022-12-12T07:41:40.776Z,4.01
2022-12-12T08:00:20.976Z,4.05
2022-12-12T08:19:01.378Z,4.03
2022-12-12T08:37:43.333Z,4.02
2022-12-12T08:56:31.299Z,4.13
2022-12-12T09:15:13.909Z,4.17
2022-12-12T09:34:00.791Z,4.23
2022-12-12T09:52:48.484Z,4.27
2022-12-12T10:11:36.126Z,4.30
2022-12-12T10:30:20.593Z,4.30
2022-12-12T10:49:04.385Z,4.17
2022-12-12T11:07:45.812Z,4.22
2022-12-12T11:26:34.385Z,4.21
2022-12-12T11:45:13.773Z,4.21
2022-12-12T12:03:50.901Z,4.22
2022-12-12T12:22:30.770Z,4.22
2022-12-12T12:41:12.424Z,4.22
2022-12-12T12:59:53.604Z,4.17
2022-12-12T13:18:44.972Z,4.19
2022-12-12T13:37:12.800Z,4.21
2022-12-12T13:55:52.712Z,4.15
2022-12-12T14:14:30.381Z,4.14
2022-12-12T14:32:53.423Z,4.22
2022-12-12T14:51:07.902Z,4.21
2022-12-12T15:09:37.602Z,4.21
2022-12-12T15:28:11.816Z,4.20
2022-12-12T15:46:45.187Z,4.20
2022-12-12T16:05:21.328Z,4.20
2022-12-12T16:23:59.030Z,4.20
2022-12-12T16:42:33.577Z,4.20
2022-12-12T17:01:05.517Z,4.15
2022-12-12T17:19:41.775Z,4.12
2022-12-12T17:38:18.603Z,4.20
2022-12-12T17:56:55.173Z,4.19
2022-12-12T18:15:32.431Z,4.20
2022-12-12T18:34:09.426Z,4.11
2022-12-12T18:52:45.231Z,4.17
2022-12-12T19:11:23.125Z,4.19
2022-12-12T19:29:58.242Z,4.14
2022-12-12T19:48:36.622Z,4.19
2022-12-12T20:07:10.705Z,4.11
2022-12-12T20:25:51.025Z,4.19
2022-12-12T20:44:22.850Z,4.19
2022-12-12T21:03:01.146Z,4.19
2022-12-12T21:40:16.225Z,4.18
2022-12-12T21:58:52.622Z,4.13
2022-12-12T22:17:30.213Z,4.18
2022-12-12T22:36:07.312Z,4.10
2022-12-12T22:54:45.502Z,4.10
2022-12-12T23:13:22.145Z,4.14
2022-12-12T23:32:00.467Z,4.09
2022-12-12T23:50:38.164Z,4.17
